sensor_id;sensor_type;location;lat;lon;timestamp;P1;durP1;ratioP1;P2;durP2;ratioP2
5650;SDS011;40241;52.684;9.758;2023-02-15T00:00:12;24.50;;;11.67;;
5650;SDS011;40241;52.684;9.758;2023-02-15T00:02:38;23.37;;;12.80;;
5650;SDS011;40241;52.684;9.758;2023-02-15T00:05:04;23.10;;;11.13;;
5650;SDS011;40241;52.684;9.758;2023-02-15T00:07:30;24.73;;;11.60;;
5650;SDS011;40241;52.684;9.758;2023-02-15T00:09:55;25.70;;;10.87;;
5650;SDS011;40241;52.684;9.758;2023-02-15T00:12:21;23.03;;;11.50;;
5650;SDS011;40241;52.684;9.758;2023-02-15T00:14:46;33.27;;;12.57;;
5650;SDS011;40241;52.684;9.758;2023-02-15T00:17:12;29.40;;;11.67;;
5650;SDS011;40241;52.684;9.758;2023-02-15T00:19:38;22.90;;;12.10;;
5650;SDS011;40241;52.684;9.758;2023-02-15T00:22:04;21.90;;;11.40;;
5650;SDS011;40241;52.684;9.758;2023-02-15T00:24:30;21.23;;;11.80;;
5650;SDS011;40241;52.684;9.758;2023-02-15T00:26:55;27.23;;;11.20;;
5650;SDS011;40241;52.684;9.758;2023-02-15T00:29:20;18.33;;;11.00;;
5650;SDS011;40241;52.684;9.758;2023-02-15T00:31:46;37.87;;;11.50;;
5650;SDS011;40241;52.684;9.758;2023-02-15T00:37:26;37.17;;;11.43;;
5650;SDS011;40241;52.684;9.758;2023-02-15T00:39:52;18.83;;;10.50;;
5650;SDS011;40241;52.684;9.758;2023-02-15T00:42:17;17.70;;;11.60;;
5650;SDS011;40241;52.684;9.758;2023-02-15T00:44:42;17.00;;;11.17;;
5650;SDS011;40241;52.684;9.758;2023-02-15T00:47:07;23.03;;;11.17;;
5650;SDS011;40241;52.684;9.758;2023-02-15T00:49:33;29.37;;;11.40;;
5650;SDS011;40241;52.684;9.758;2023-02-15T00:51:58;19.30;;;11.27;;
5650;SDS011;40241;52.684;9.758;2023-02-15T00:54:23;17.20;;;10.73;;
5650;SDS011;40241;52.684;9.758;2023-02-15T00:56:49;15.10;;;10.30;;
5650;SDS011;40241;52.684;9.758;2023-02-15T00:59:14;15.50;;;10.47;;
5650;SDS011;40241;52.684;9.758;2023-02-15T01:01:39;15.93;;;10.43;;
5650;SDS011;40241;52.684;9.758;2023-02-15T01:04:04;15.07;;;10.07;;
5650;SDS011;40241;52.684;9.758;2023-02-15T01:06:30;15.33;;;9.53;;
5650;SDS011;40241;52.684;9.758;2023-02-15T01:08:55;16.37;;;10.50;;
5650;SDS011;40241;52.684;9.758;2023-02-15T01:11:21;22.73;;;10.60;;
5650;SDS011;40241;52.684;9.758;2023-02-15T01:13:48;20.20;;;11.17;;
5650;SDS011;40241;52.684;9.758;2023-02-15T01:16:15;16.63;;;10.20;;
5650;SDS011;40241;52.684;9.758;2023-02-15T01:18:40;18.40;;;10.70;;
5650;SDS011;40241;52.684;9.758;2023-02-15T01:21:24;16.30;;;10.20;;
5650;SDS011;40241;52.684;9.758;2023-02-15T01:23:50;36.87;;;11.00;;
5650;SDS011;40241;52.684;9.758;2023-02-15T01:26:16;17.27;;;9.40;;
5650;SDS011;40241;52.684;9.758;2023-02-15T01:28:41;22.70;;;11.23;;
5650;SDS011;40241;52.684;9.758;2023-02-15T01:31:14;15.60;;;10.27;;
5650;SDS011;40241;52.684;9.758;2023-02-15T01:33:40;19.60;;;9.80;;
5650;SDS011;40241;52.684;9.758;2023-02-15T01:36:06;16.50;;;10.57;;
5650;SDS011;40241;52.684;9.758;2023-02-15T01:38:32;24.10;;;12.47;;
5650;SDS011;40241;52.684;9.758;2023-02-15T01:40:58;26.00;;;10.90;;
5650;SDS011;40241;52.684;9.758;2023-02-15T01:43:57;17.83;;;9.50;;
5650;SDS011;40241;52.684;9.758;2023-02-15T01:46:27;20.37;;;11.50;;
5650;SDS011;40241;52.684;9.758;2023-02-15T01:48:56;27.53;;;13.17;;
5650;SDS011;40241;52.684;9.758;2023-02-15T01:51:27;19.20;;;10.90;;
5650;SDS011;40241;52.684;9.758;2023-02-15T01:54:00;18.43;;;10.47;;
5650;SDS011;40241;52.684;9.758;2023-02-15T01:56:31;15.03;;;9.50;;
5650;SDS011;40241;52.684;9.758;2023-02-15T01:59:00;21.73;;;10.87;;
5650;SDS011;40241;52.684;9.758;2023-02-15T02:01:30;22.27;;;9.40;;
5650;SDS011;40241;52.684;9.758;2023-02-15T02:06:27;17.27;;;9.00;;
5650;SDS011;40241;52.684;9.758;2023-02-15T02:08:53;23.90;;;9.00;;
5650;SDS011;40241;52.684;9.758;2023-02-15T02:11:19;22.33;;;8.90;;
5650;SDS011;40241;52.684;9.758;2023-02-15T02:13:45;31.43;;;10.30;;
5650;SDS011;40241;52.684;9.758;2023-02-15T02:19:00;26.93;;;10.40;;
5650;SDS011;40241;52.684;9.758;2023-02-15T02:21:50;31.47;;;9.17;;
5650;SDS011;40241;52.684;9.758;2023-02-15T02:30:06;21.10;;;8.77;;
5650;SDS011;40241;52.684;9.758;2023-02-15T02:41:43;17.47;;;8.60;;
5650;SDS011;40241;52.684;9.758;2023-02-15T02:44:13;18.77;;;8.17;;
5650;SDS011;40241;52.684;9.758;2023-02-15T02:49:30;16.50;;;8.10;;
5650;SDS011;40241;52.684;9.758;2023-02-15T02:52:00;17.00;;;8.93;;
5650;SDS011;40241;52.684;9.758;2023-02-15T02:54:28;20.37;;;8.67;;
5650;SDS011;40241;52.684;9.758;2023-02-15T02:56:55;13.47;;;8.20;;
5650;SDS011;40241;52.684;9.758;2023-02-15T02:59:25;16.43;;;8.83;;
5650;SDS011;40241;52.684;9.758;2023-02-15T03:01:55;12.17;;;8.60;;
5650;SDS011;40241;52.684;9.758;2023-02-15T03:04:31;19.07;;;8.33;;
5650;SDS011;40241;52.684;9.758;2023-02-15T03:07:01;12.30;;;7.30;;
5650;SDS011;40241;52.684;9.758;2023-02-15T03:09:31;13.73;;;7.70;;
5650;SDS011;40241;52.684;9.758;2023-02-15T03:12:08;16.33;;;8.33;;
5650;SDS011;40241;52.684;9.758;2023-02-15T03:14:36;21.40;;;8.43;;
5650;SDS011;40241;52.684;9.758;2023-02-15T03:17:03;20.47;;;8.47;;
5650;SDS011;40241;52.684;9.758;2023-02-15T03:19:30;16.53;;;7.73;;
5650;SDS011;40241;52.684;9.758;2023-02-15T03:22:03;11.23;;;7.40;;
5650;SDS011;40241;52.684;9.758;2023-02-15T03:24:38;15.40;;;8.40;;
5650;SDS011;40241;52.684;9.758;2023-02-15T03:27:33;21.60;;;8.90;;
5650;SDS011;40241;52.684;9.758;2023-02-15T03:30:03;19.03;;;8.90;;
5650;SDS011;40241;52.684;9.758;2023-02-15T03:32:30;16.23;;;8.40;;
5650;SDS011;40241;52.684;9.758;2023-02-15T03:34:59;20.87;;;7.63;;
5650;SDS011;40241;52.684;9.758;2023-02-15T03:37:44;12.63;;;7.57;;
5650;SDS011;40241;52.684;9.758;2023-02-15T03:40:30;12.10;;;7.67;;
5650;SDS011;40241;52.684;9.758;2023-02-15T03:46:19;22.73;;;8.07;;
5650;SDS011;40241;52.684;9.758;2023-02-15T03:48:54;19.57;;;8.23;;
5650;SDS011;40241;52.684;9.758;2023-02-15T03:51:29;17.37;;;7.37;;
5650;SDS011;40241;52.684;9.758;2023-02-15T03:53:58;23.13;;;7.63;;
5650;SDS011;40241;52.684;9.758;2023-02-15T03:56:29;19.07;;;7.63;;
5650;SDS011;40241;52.684;9.758;2023-02-15T03:58:55;29.93;;;8.73;;
5650;SDS011;40241;52.684;9.758;2023-02-15T04:04:39;17.93;;;7.53;;
5650;SDS011;40241;52.684;9.758;2023-02-15T04:07:08;23.07;;;7.70;;
5650;SDS011;40241;52.684;9.758;2023-02-15T04:09:34;12.33;;;6.93;;
5650;SDS011;40241;52.684;9.758;2023-02-15T04:12:18;16.73;;;7.63;;
5650;SDS011;40241;52.684;9.758;2023-02-15T04:14:43;18.63;;;7.00;;
5650;SDS011;40241;52.684;9.758;2023-02-15T04:17:27;18.93;;;7.30;;
5650;SDS011;40241;52.684;9.758;2023-02-15T04:19:52;16.63;;;7.00;;
5650;SDS011;40241;52.684;9.758;2023-02-15T04:22:36;19.03;;;7.10;;
5650;SDS011;40241;52.684;9.758;2023-02-15T04:25:20;24.27;;;6.93;;
5650;SDS011;40241;52.684;9.758;2023-02-15T04:27:50;22.87;;;7.10;;
5650;SDS011;40241;52.684;9.758;2023-02-15T04:30:18;12.00;;;6.47;;
5650;SDS011;40241;52.684;9.758;2023-02-15T04:32:45;11.90;;;7.30;;
5650;SDS011;40241;52.684;9.758;2023-02-15T04:35:10;10.47;;;6.13;;
5650;SDS011;40241;52.684;9.758;2023-02-15T04:37:37;13.33;;;6.63;;
5650;SDS011;40241;52.684;9.758;2023-02-15T04:40:03;20.10;;;7.27;;
5650;SDS011;40241;52.684;9.758;2023-02-15T04:42:30;14.07;;;7.00;;
5650;SDS011;40241;52.684;9.758;2023-02-15T04:44:55;21.90;;;7.03;;
5650;SDS011;40241;52.684;9.758;2023-02-15T04:47:20;15.30;;;6.40;;
5650;SDS011;40241;52.684;9.758;2023-02-15T04:49:46;18.30;;;6.60;;
5650;SDS011;40241;52.684;9.758;2023-02-15T04:52:11;17.20;;;7.30;;
5650;SDS011;40241;52.684;9.758;2023-02-15T04:54:37;13.77;;;6.60;;
5650;SDS011;40241;52.684;9.758;2023-02-15T04:57:03;15.83;;;6.40;;
5650;SDS011;40241;52.684;9.758;2023-02-15T04:59:29;8.70;;;5.63;;
5650;SDS011;40241;52.684;9.758;2023-02-15T05:01:55;12.10;;;6.67;;
5650;SDS011;40241;52.684;9.758;2023-02-15T05:04:20;15.40;;;7.20;;
5650;SDS011;40241;52.684;9.758;2023-02-15T05:06:45;9.83;;;6.80;;
5650;SDS011;40241;52.684;9.758;2023-02-15T05:09:11;12.43;;;7.00;;
5650;SDS011;40241;52.684;9.758;2023-02-15T05:11:37;13.57;;;6.73;;
5650;SDS011;40241;52.684;9.758;2023-02-15T05:14:02;12.80;;;6.70;;
5650;SDS011;40241;52.684;9.758;2023-02-15T05:16:28;15.13;;;6.47;;
5650;SDS011;40241;52.684;9.758;2023-02-15T05:18:53;22.87;;;6.93;;
5650;SDS011;40241;52.684;9.758;2023-02-15T05:21:19;15.00;;;6.20;;
5650;SDS011;40241;52.684;9.758;2023-02-15T05:23:44;10.60;;;6.70;;
5650;SDS011;40241;52.684;9.758;2023-02-15T05:26:11;10.60;;;6.57;;
5650;SDS011;40241;52.684;9.758;2023-02-15T05:28:55;21.87;;;6.50;;
5650;SDS011;40241;52.684;9.758;2023-02-15T05:31:20;28.17;;;6.73;;
5650;SDS011;40241;52.684;9.758;2023-02-15T05:33:45;10.50;;;6.40;;
5650;SDS011;40241;52.684;9.758;2023-02-15T05:36:11;17.37;;;6.80;;
5650;SDS011;40241;52.684;9.758;2023-02-15T05:38:37;9.37;;;6.40;;
5650;SDS011;40241;52.684;9.758;2023-02-15T05:41:03;8.50;;;5.87;;
5650;SDS011;40241;52.684;9.758;2023-02-15T05:43:29;8.87;;;5.93;;
5650;SDS011;40241;52.684;9.758;2023-02-15T05:45:55;7.97;;;6.50;;
5650;SDS011;40241;52.684;9.758;2023-02-15T05:48:21;17.40;;;6.60;;
5650;SDS011;40241;52.684;9.758;2023-02-15T05:50:56;9.40;;;6.23;;
5650;SDS011;40241;52.684;9.758;2023-02-15T05:53:26;8.53;;;5.80;;
5650;SDS011;40241;52.684;9.758;2023-02-15T05:55:51;10.10;;;6.13;;
5650;SDS011;40241;52.684;9.758;2023-02-15T05:58:17;9.13;;;6.50;;
5650;SDS011;40241;52.684;9.758;2023-02-15T06:00:42;10.17;;;6.00;;
5650;SDS011;40241;52.684;9.758;2023-02-15T06:03:08;10.70;;;7.07;;
5650;SDS011;40241;52.684;9.758;2023-02-15T06:05:33;9.90;;;6.57;;
5650;SDS011;40241;52.684;9.758;2023-02-15T06:07:59;9.17;;;6.63;;
5650;SDS011;40241;52.684;9.758;2023-02-15T06:10:24;10.07;;;6.10;;
5650;SDS011;40241;52.684;9.758;2023-02-15T06:12:49;11.40;;;6.60;;
5650;SDS011;40241;52.684;9.758;2023-02-15T06:15:15;8.90;;;6.30;;
5650;SDS011;40241;52.684;9.758;2023-02-15T06:17:41;7.80;;;5.60;;
5650;SDS011;40241;52.684;9.758;2023-02-15T06:20:07;7.03;;;5.77;;
5650;SDS011;40241;52.684;9.758;2023-02-15T06:22:33;11.27;;;7.27;;
5650;SDS011;40241;52.684;9.758;2023-02-15T06:24:58;8.00;;;6.40;;
5650;SDS011;40241;52.684;9.758;2023-02-15T06:27:24;8.90;;;6.93;;
5650;SDS011;40241;52.684;9.758;2023-02-15T06:29:49;8.30;;;6.23;;
5650;SDS011;40241;52.684;9.758;2023-02-15T06:32:14;9.23;;;6.73;;
5650;SDS011;40241;52.684;9.758;2023-02-15T06:34:40;7.20;;;6.30;;
5650;SDS011;40241;52.684;9.758;2023-02-15T06:37:05;6.87;;;5.60;;
5650;SDS011;40241;52.684;9.758;2023-02-15T06:39:32;7.97;;;6.10;;
5650;SDS011;40241;52.684;9.758;2023-02-15T06:41:58;14.40;;;6.67;;
5650;SDS011;40241;52.684;9.758;2023-02-15T06:44:23;9.30;;;6.70;;
5650;SDS011;40241;52.684;9.758;2023-02-15T06:46:49;7.97;;;5.60;;
5650;SDS011;40241;52.684;9.758;2023-02-15T06:49:14;8.83;;;6.50;;
5650;SDS011;40241;52.684;9.758;2023-02-15T06:51:39;10.57;;;6.50;;
5650;SDS011;40241;52.684;9.758;2023-02-15T06:54:05;7.70;;;6.17;;
5650;SDS011;40241;52.684;9.758;2023-02-15T06:56:30;8.00;;;5.67;;
5650;SDS011;40241;52.684;9.758;2023-02-15T06:58:55;7.73;;;5.87;;
5650;SDS011;40241;52.684;9.758;2023-02-15T07:01:21;9.23;;;6.50;;
5650;SDS011;40241;52.684;9.758;2023-02-15T07:03:46;8.10;;;6.13;;
5650;SDS011;40241;52.684;9.758;2023-02-15T07:06:11;14.30;;;6.77;;
5650;SDS011;40241;52.684;9.758;2023-02-15T07:08:37;9.50;;;6.63;;
5650;SDS011;40241;52.684;9.758;2023-02-15T07:11:04;7.87;;;6.13;;
5650;SDS011;40241;52.684;9.758;2023-02-15T07:13:48;8.73;;;6.10;;
5650;SDS011;40241;52.684;9.758;2023-02-15T07:16:13;9.47;;;6.70;;
5650;SDS011;40241;52.684;9.758;2023-02-15T07:18:39;11.20;;;7.30;;
5650;SDS011;40241;52.684;9.758;2023-02-15T07:21:05;8.97;;;6.97;;
5650;SDS011;40241;52.684;9.758;2023-02-15T07:23:37;9.77;;;6.67;;
5650;SDS011;40241;52.684;9.758;2023-02-15T07:26:03;10.20;;;6.90;;
5650;SDS011;40241;52.684;9.758;2023-02-15T07:28:30;8.67;;;6.23;;
5650;SDS011;40241;52.684;9.758;2023-02-15T07:30:56;10.33;;;7.27;;
5650;SDS011;40241;52.684;9.758;2023-02-15T07:33:22;9.00;;;6.80;;
5650;SDS011;40241;52.684;9.758;2023-02-15T07:35:55;9.47;;;7.13;;
5650;SDS011;40241;52.684;9.758;2023-02-15T07:38:25;6.50;;;5.67;;
5650;SDS011;40241;52.684;9.758;2023-02-15T07:40:51;7.43;;;5.70;;
5650;SDS011;40241;52.684;9.758;2023-02-15T07:43:22;9.30;;;6.67;;
5650;SDS011;40241;52.684;9.758;2023-02-15T07:45:47;9.27;;;6.30;;
5650;SDS011;40241;52.684;9.758;2023-02-15T07:48:12;8.97;;;6.40;;
5650;SDS011;40241;52.684;9.758;2023-02-15T07:50:38;8.90;;;6.83;;
5650;SDS011;40241;52.684;9.758;2023-02-15T07:53:03;8.00;;;6.20;;
5650;SDS011;40241;52.684;9.758;2023-02-15T07:55:29;8.57;;;6.83;;
5650;SDS011;40241;52.684;9.758;2023-02-15T07:57:55;7.20;;;6.17;;
5650;SDS011;40241;52.684;9.758;2023-02-15T08:00:21;8.10;;;6.27;;
5650;SDS011;40241;52.684;9.758;2023-02-15T08:02:53;8.93;;;6.73;;
5650;SDS011;40241;52.684;9.758;2023-02-15T08:05:39;9.57;;;6.97;;
5650;SDS011;40241;52.684;9.758;2023-02-15T08:08:06;7.80;;;6.10;;
5650;SDS011;40241;52.684;9.758;2023-02-15T08:10:32;8.80;;;6.23;;
5650;SDS011;40241;52.684;9.758;2023-02-15T08:13:16;9.63;;;6.87;;
5650;SDS011;40241;52.684;9.758;2023-02-15T08:15:47;8.80;;;6.80;;
5650;SDS011;40241;52.684;9.758;2023-02-15T08:18:16;11.10;;;6.47;;
5650;SDS011;40241;52.684;9.758;2023-02-15T08:20:41;7.67;;;6.17;;
5650;SDS011;40241;52.684;9.758;2023-02-15T08:23:07;9.43;;;7.30;;
5650;SDS011;40241;52.684;9.758;2023-02-15T08:25:32;9.90;;;7.27;;
5650;SDS011;40241;52.684;9.758;2023-02-15T08:27:58;8.47;;;6.80;;
5650;SDS011;40241;52.684;9.758;2023-02-15T08:30:23;9.80;;;6.67;;
5650;SDS011;40241;52.684;9.758;2023-02-15T08:32:48;10.63;;;7.60;;
5650;SDS011;40241;52.684;9.758;2023-02-15T08:35:14;11.50;;;6.67;;
5650;SDS011;40241;52.684;9.758;2023-02-15T08:37:39;8.97;;;6.23;;
5650;SDS011;40241;52.684;9.758;2023-02-15T08:40:04;10.10;;;6.87;;
5650;SDS011;40241;52.684;9.758;2023-02-15T08:42:32;9.63;;;6.87;;
5650;SDS011;40241;52.684;9.758;2023-02-15T08:44:58;9.63;;;7.23;;
5650;SDS011;40241;52.684;9.758;2023-02-15T08:47:23;11.07;;;7.60;;
5650;SDS011;40241;52.684;9.758;2023-02-15T08:49:49;9.13;;;7.23;;
5650;SDS011;40241;52.684;9.758;2023-02-15T08:52:14;8.43;;;6.73;;
5650;SDS011;40241;52.684;9.758;2023-02-15T08:54:39;11.20;;;7.67;;
5650;SDS011;40241;52.684;9.758;2023-02-15T08:57:04;9.00;;;7.53;;
5650;SDS011;40241;52.684;9.758;2023-02-15T08:59:31;10.00;;;7.10;;
5650;SDS011;40241;52.684;9.758;2023-02-15T09:01:57;10.00;;;7.63;;
5650;SDS011;40241;52.684;9.758;2023-02-15T09:04:22;10.10;;;7.60;;
5650;SDS011;40241;52.684;9.758;2023-02-15T09:06:48;11.83;;;7.90;;
5650;SDS011;40241;52.684;9.758;2023-02-15T09:09:15;10.47;;;7.53;;
5650;SDS011;40241;52.684;9.758;2023-02-15T09:11:42;10.80;;;8.00;;
5650;SDS011;40241;52.684;9.758;2023-02-15T09:14:12;10.43;;;7.33;;
5650;SDS011;40241;52.684;9.758;2023-02-15T09:16:41;10.90;;;8.17;;
5650;SDS011;40241;52.684;9.758;2023-02-15T09:19:09;12.00;;;7.90;;
5650;SDS011;40241;52.684;9.758;2023-02-15T09:21:35;10.70;;;7.30;;
5650;SDS011;40241;52.684;9.758;2023-02-15T09:24:04;10.00;;;7.37;;
5650;SDS011;40241;52.684;9.758;2023-02-15T09:26:31;13.07;;;8.70;;
5650;SDS011;40241;52.684;9.758;2023-02-15T09:29:00;10.33;;;7.57;;
5650;SDS011;40241;52.684;9.758;2023-02-15T09:31:28;15.30;;;7.83;;
5650;SDS011;40241;52.684;9.758;2023-02-15T09:33:56;12.77;;;8.63;;
5650;SDS011;40241;52.684;9.758;2023-02-15T09:38:58;11.83;;;8.00;;
5650;SDS011;40241;52.684;9.758;2023-02-15T09:41:44;12.47;;;8.50;;
5650;SDS011;40241;52.684;9.758;2023-02-15T09:44:21;10.60;;;8.50;;
5650;SDS011;40241;52.684;9.758;2023-02-15T10:00:30;10.83;;;8.50;;
5650;SDS011;40241;52.684;9.758;2023-02-15T10:05:40;13.53;;;9.00;;
5650;SDS011;40241;52.684;9.758;2023-02-15T10:08:46;13.20;;;8.90;;
5650;SDS011;40241;52.684;9.758;2023-02-15T10:12:01;14.17;;;9.23;;
5650;SDS011;40241;52.684;9.758;2023-02-15T10:17:24;19.90;;;9.20;;
5650;SDS011;40241;52.684;9.758;2023-02-15T10:22:41;14.00;;;10.00;;
5650;SDS011;40241;52.684;9.758;2023-02-15T10:28:16;12.97;;;9.80;;
5650;SDS011;40241;52.684;9.758;2023-02-15T10:30:51;15.30;;;10.27;;
5650;SDS011;40241;52.684;9.758;2023-02-15T10:42:05;13.20;;;9.40;;
5650;SDS011;40241;52.684;9.758;2023-02-15T10:45:10;13.93;;;9.80;;
5650;SDS011;40241;52.684;9.758;2023-02-15T10:47:54;13.80;;;9.70;;
5650;SDS011;40241;52.684;9.758;2023-02-15T10:50:28;14.20;;;9.97;;
5650;SDS011;40241;52.684;9.758;2023-02-15T11:01:45;14.30;;;9.63;;
5650;SDS011;40241;52.684;9.758;2023-02-15T11:07:12;13.63;;;10.20;;
5650;SDS011;40241;52.684;9.758;2023-02-15T11:09:50;12.60;;;9.13;;
5650;SDS011;40241;52.684;9.758;2023-02-15T11:12:36;18.17;;;10.50;;
5650;SDS011;40241;52.684;9.758;2023-02-15T11:15:04;11.50;;;8.40;;
5650;SDS011;40241;52.684;9.758;2023-02-15T11:17:42;14.30;;;9.40;;
5650;SDS011;40241;52.684;9.758;2023-02-15T11:22:43;13.43;;;9.17;;
5650;SDS011;40241;52.684;9.758;2023-02-15T11:25:15;13.13;;;9.63;;
5650;SDS011;40241;52.684;9.758;2023-02-15T11:27:45;13.93;;;10.03;;
5650;SDS011;40241;52.684;9.758;2023-02-15T11:30:13;12.83;;;9.30;;
5650;SDS011;40241;52.684;9.758;2023-02-15T11:32:40;12.40;;;8.83;;
5650;SDS011;40241;52.684;9.758;2023-02-15T11:41:17;13.20;;;8.97;;
5650;SDS011;40241;52.684;9.758;2023-02-15T11:43:23;13.77;;;8.47;;
5650;SDS011;40241;52.684;9.758;2023-02-15T11:45:53;14.07;;;9.47;;
5650;SDS011;40241;52.684;9.758;2023-02-15T11:48:19;12.97;;;9.30;;
5650;SDS011;40241;52.684;9.758;2023-02-15T11:50:44;12.33;;;8.17;;
5650;SDS011;40241;52.684;9.758;2023-02-15T11:53:31;13.63;;;8.57;;
5650;SDS011;40241;52.684;9.758;2023-02-15T11:55:58;13.33;;;8.27;;
5650;SDS011;40241;52.684;9.758;2023-02-15T11:58:37;12.67;;;8.80;;
5650;SDS011;40241;52.684;9.758;2023-02-15T12:01:24;12.00;;;7.77;;
5650;SDS011;40241;52.684;9.758;2023-02-15T12:06:34;13.60;;;9.63;;
5650;SDS011;40241;52.684;9.758;2023-02-15T12:12:28;13.10;;;8.80;;
5650;SDS011;40241;52.684;9.758;2023-02-15T12:14:56;11.00;;;7.73;;
5650;SDS011;40241;52.684;9.758;2023-02-15T12:17:33;13.50;;;8.50;;
5650;SDS011;40241;52.684;9.758;2023-02-15T12:20:27;11.90;;;8.67;;
5650;SDS011;40241;52.684;9.758;2023-02-15T12:23:14;8.57;;;6.63;;
5650;SDS011;40241;52.684;9.758;2023-02-15T12:28:22;11.70;;;8.40;;
5650;SDS011;40241;52.684;9.758;2023-02-15T12:30:52;12.70;;;9.23;;
5650;SDS011;40241;52.684;9.758;2023-02-15T12:33:28;13.40;;;10.00;;
5650;SDS011;40241;52.684;9.758;2023-02-15T12:36:11;12.13;;;7.87;;
5650;SDS011;40241;52.684;9.758;2023-02-15T12:38:40;11.47;;;9.13;;
5650;SDS011;40241;52.684;9.758;2023-02-15T12:44:06;12.13;;;9.27;;
5650;SDS011;40241;52.684;9.758;2023-02-15T12:47:46;10.17;;;7.20;;
5650;SDS011;40241;52.684;9.758;2023-02-15T12:49:40;11.60;;;8.20;;
5650;SDS011;40241;52.684;9.758;2023-02-15T12:52:13;10.27;;;8.00;;
5650;SDS011;40241;52.684;9.758;2023-02-15T12:54:48;9.80;;;8.00;;
5650;SDS011;40241;52.684;9.758;2023-02-15T12:57:28;11.57;;;8.50;;
5650;SDS011;40241;52.684;9.758;2023-02-15T12:59:56;18.40;;;8.30;;
5650;SDS011;40241;52.684;9.758;2023-02-15T13:02:34;11.37;;;7.70;;
5650;SDS011;40241;52.684;9.758;2023-02-15T13:05:19;12.30;;;8.60;;
5650;SDS011;40241;52.684;9.758;2023-02-15T13:07:55;11.90;;;8.03;;
5650;SDS011;40241;52.684;9.758;2023-02-15T13:10:27;12.70;;;8.73;;
5650;SDS011;40241;52.684;9.758;2023-02-15T13:12:55;12.13;;;8.10;;
5650;SDS011;40241;52.684;9.758;2023-02-15T13:15:39;16.23;;;9.30;;
5650;SDS011;40241;52.684;9.758;2023-02-15T13:18:10;12.50;;;9.10;;
5650;SDS011;40241;52.684;9.758;2023-02-15T13:20:41;12.57;;;9.50;;
5650;SDS011;40241;52.684;9.758;2023-02-15T13:23:25;12.37;;;8.63;;
5650;SDS011;40241;52.684;9.758;2023-02-15T13:25:52;13.10;;;9.23;;
5650;SDS011;40241;52.684;9.758;2023-02-15T13:28:22;13.73;;;9.37;;
5650;SDS011;40241;52.684;9.758;2023-02-15T13:30:52;13.00;;;9.77;;
5650;SDS011;40241;52.684;9.758;2023-02-15T13:33:31;12.90;;;9.70;;
5650;SDS011;40241;52.684;9.758;2023-02-15T13:41:46;11.40;;;8.27;;
5650;SDS011;40241;52.684;9.758;2023-02-15T13:47:05;14.53;;;9.90;;
5650;SDS011;40241;52.684;9.758;2023-02-15T13:52:19;17.60;;;9.87;;
5650;SDS011;40241;52.684;9.758;2023-02-15T13:54:59;14.07;;;10.10;;
5650;SDS011;40241;52.684;9.758;2023-02-15T13:57:32;14.43;;;9.30;;
5650;SDS011;40241;52.684;9.758;2023-02-15T14:00:16;14.87;;;9.60;;
5650;SDS011;40241;52.684;9.758;2023-02-15T14:16:06;13.17;;;9.20;;
5650;SDS011;40241;52.684;9.758;2023-02-15T14:18:41;12.33;;;9.37;;
5650;SDS011;40241;52.684;9.758;2023-02-15T14:21:23;14.80;;;10.00;;
5650;SDS011;40241;52.684;9.758;2023-02-15T14:29:41;14.23;;;9.27;;
5650;SDS011;40241;52.684;9.758;2023-02-15T14:32:13;13.13;;;9.20;;
5650;SDS011;40241;52.684;9.758;2023-02-15T14:34:53;13.87;;;9.30;;
5650;SDS011;40241;52.684;9.758;2023-02-15T14:38:07;13.10;;;8.93;;
5650;SDS011;40241;52.684;9.758;2023-02-15T14:43:13;12.80;;;8.87;;
5650;SDS011;40241;52.684;9.758;2023-02-15T14:48:50;11.20;;;8.77;;
5650;SDS011;40241;52.684;9.758;2023-02-15T14:54:08;12.10;;;8.80;;
5650;SDS011;40241;52.684;9.758;2023-02-15T14:56:35;12.63;;;8.70;;
5650;SDS011;40241;52.684;9.758;2023-02-15T15:01:50;11.63;;;8.57;;
5650;SDS011;40241;52.684;9.758;2023-02-15T15:04:36;12.47;;;8.30;;
5650;SDS011;40241;52.684;9.758;2023-02-15T15:07:26;13.30;;;9.30;;
5650;SDS011;40241;52.684;9.758;2023-02-15T15:12:42;12.40;;;7.90;;
5650;SDS011;40241;52.684;9.758;2023-02-15T15:23:33;12.53;;;8.30;;
5650;SDS011;40241;52.684;9.758;2023-02-15T15:26:20;10.87;;;7.70;;
5650;SDS011;40241;52.684;9.758;2023-02-15T15:36:40;14.23;;;7.07;;
5650;SDS011;40241;52.684;9.758;2023-02-15T15:42:48;7.70;;;6.60;;
5650;SDS011;40241;52.684;9.758;2023-02-15T15:45:37;11.07;;;6.73;;
5650;SDS011;40241;52.684;9.758;2023-02-15T15:50:59;11.60;;;7.73;;
5650;SDS011;40241;52.684;9.758;2023-02-15T15:53:27;10.37;;;6.90;;
5650;SDS011;40241;52.684;9.758;2023-02-15T15:56:01;10.80;;;7.37;;
5650;SDS011;40241;52.684;9.758;2023-02-15T15:58:31;8.60;;;5.90;;
5650;SDS011;40241;52.684;9.758;2023-02-15T16:01:09;8.43;;;6.10;;
5650;SDS011;40241;52.684;9.758;2023-02-15T16:03:36;10.40;;;6.93;;
5650;SDS011;40241;52.684;9.758;2023-02-15T16:06:02;13.57;;;7.73;;
5650;SDS011;40241;52.684;9.758;2023-02-15T16:08:34;11.17;;;6.93;;
5650;SDS011;40241;52.684;9.758;2023-02-15T16:11:14;11.47;;;7.53;;
5650;SDS011;40241;52.684;9.758;2023-02-15T16:13:49;12.33;;;6.83;;
5650;SDS011;40241;52.684;9.758;2023-02-15T16:16:23;8.67;;;6.63;;
5650;SDS011;40241;52.684;9.758;2023-02-15T16:18:52;12.07;;;7.27;;
5650;SDS011;40241;52.684;9.758;2023-02-15T16:21:21;9.47;;;7.00;;
5650;SDS011;40241;52.684;9.758;2023-02-15T16:32:54;7.43;;;5.53;;
5650;SDS011;40241;52.684;9.758;2023-02-15T16:35:33;9.20;;;6.63;;
5650;SDS011;40241;52.684;9.758;2023-02-15T16:38:00;10.47;;;6.37;;
5650;SDS011;40241;52.684;9.758;2023-02-15T16:40:30;9.60;;;6.70;;
5650;SDS011;40241;52.684;9.758;2023-02-15T16:43:23;12.43;;;6.33;;
5650;SDS011;40241;52.684;9.758;2023-02-15T16:46:00;11.03;;;6.33;;
5650;SDS011;40241;52.684;9.758;2023-02-15T16:48:30;10.33;;;6.53;;
5650;SDS011;40241;52.684;9.758;2023-02-15T16:50:58;10.80;;;6.70;;
5650;SDS011;40241;52.684;9.758;2023-02-15T16:53:25;9.70;;;6.60;;
5650;SDS011;40241;52.684;9.758;2023-02-15T16:55:57;10.23;;;6.57;;
5650;SDS011;40241;52.684;9.758;2023-02-15T17:01:07;12.87;;;6.80;;
5650;SDS011;40241;52.684;9.758;2023-02-15T17:03:35;10.73;;;6.43;;
5650;SDS011;40241;52.684;9.758;2023-02-15T17:06:01;11.77;;;6.67;;
5650;SDS011;40241;52.684;9.758;2023-02-15T17:08:34;8.70;;;6.37;;
5650;SDS011;40241;52.684;9.758;2023-02-15T17:11:49;10.70;;;6.40;;
5650;SDS011;40241;52.684;9.758;2023-02-15T17:21:42;9.67;;;6.17;;
5650;SDS011;40241;52.684;9.758;2023-02-15T17:24:33;10.33;;;6.30;;
5650;SDS011;40241;52.684;9.758;2023-02-15T17:27:05;10.73;;;6.17;;
5650;SDS011;40241;52.684;9.758;2023-02-15T17:29:41;10.37;;;6.57;;
5650;SDS011;40241;52.684;9.758;2023-02-15T17:32:13;13.50;;;6.93;;
5650;SDS011;40241;52.684;9.758;2023-02-15T17:37:13;10.40;;;6.40;;
5650;SDS011;40241;52.684;9.758;2023-02-15T17:39:48;10.30;;;7.03;;
5650;SDS011;40241;52.684;9.758;2023-02-15T17:42:14;14.57;;;7.10;;
5650;SDS011;40241;52.684;9.758;2023-02-15T17:44:39;15.20;;;7.87;;
5650;SDS011;40241;52.684;9.758;2023-02-15T17:47:04;10.63;;;7.10;;
5650;SDS011;40241;52.684;9.758;2023-02-15T17:49:30;12.37;;;7.10;;
5650;SDS011;40241;52.684;9.758;2023-02-15T17:52:01;10.87;;;7.40;;
5650;SDS011;40241;52.684;9.758;2023-02-15T17:54:27;11.07;;;7.23;;
5650;SDS011;40241;52.684;9.758;2023-02-15T17:57:12;14.97;;;8.27;;
5650;SDS011;40241;52.684;9.758;2023-02-15T17:59:38;12.73;;;7.40;;
5650;SDS011;40241;52.684;9.758;2023-02-15T18:02:22;12.27;;;7.40;;
5650;SDS011;40241;52.684;9.758;2023-02-15T18:05:11;9.87;;;7.20;;
5650;SDS011;40241;52.684;9.758;2023-02-15T18:07:56;14.00;;;7.13;;
5650;SDS011;40241;52.684;9.758;2023-02-15T18:10:41;8.50;;;6.00;;
5650;SDS011;40241;52.684;9.758;2023-02-15T18:13:25;11.40;;;7.77;;
5650;SDS011;40241;52.684;9.758;2023-02-15T18:15:50;14.90;;;8.03;;
5650;SDS011;40241;52.684;9.758;2023-02-15T18:18:17;15.93;;;7.53;;